sensor_id;sensor_type;location;lat;lon;timestamp;pressure;altitude;pressure_sealevel;temperature;humidity
41636;BME280;27623;51.966;4.602;2024-03-07T00:02:08;64181.38;;;9.75;90.86
41636;BME280;27623;51.966;4.602;2024-03-07T00:04:33;64213.00;;;9.69;91.27
41636;BME280;27623;51.966;4.602;2024-03-07T00:07:03;64185.00;;;9.69;91.48
41636;BME280;27623;51.966;4.602;2024-03-07T00:09:32;64201.00;;;9.72;91.29
41636;BME280;27623;51.966;4.602;2024-03-07T00:11:58;64173.03;;;9.64;91.84
41636;BME280;27623;51.966;4.602;2024-03-07T00:14:24;64180.69;;;9.50;92.48
41636;BME280;27623;51.966;4.602;2024-03-07T00:16:55;64159.78;;;9.57;92.67
41636;BME280;27623;51.966;4.602;2024-03-07T00:19:23;64149.03;;;9.63;92.61
41636;BME280;27623;51.966;4.602;2024-03-07T00:21:56;64175.56;;;9.64;92.19
41636;BME280;27623;51.966;4.602;2024-03-07T00:24:22;64179.78;;;9.52;92.75
41636;BME280;27623;51.966;4.602;2024-03-07T00:26:52;64173.03;;;9.57;92.52
41636;BME280;27623;51.966;4.602;2024-03-07T00:29:22;64126.00;;;9.54;92.10
41636;BME280;27623;51.966;4.602;2024-03-07T00:31:48;64184.13;;;9.56;92.67
41636;BME280;27623;51.966;4.602;2024-03-07T00:34:14;64173.06;;;9.50;92.31
41636;BME280;27623;51.966;4.602;2024-03-07T00:36:42;64158.53;;;9.53;92.02
41636;BME280;27623;51.966;4.602;2024-03-07T00:39:07;64109.13;;;9.38;92.81
41636;BME280;27623;51.966;4.602;2024-03-07T00:41:34;64160.34;;;9.43;92.16
41636;BME280;27623;51.966;4.602;2024-03-07T00:43:59;64147.28;;;9.45;91.85
41636;BME280;27623;51.966;4.602;2024-03-07T00:46:24;64155.63;;;9.41;92.07
41636;BME280;27623;51.966;4.602;2024-03-07T00:48:50;64125.50;;;9.32;92.30
41636;BME280;27623;51.966;4.602;2024-03-07T00:51:15;64100.63;;;9.25;92.47
41636;BME280;27623;51.966;4.602;2024-03-07T00:53:41;64131.50;;;9.16;92.93
41636;BME280;27623;51.966;4.602;2024-03-07T00:56:06;64147.50;;;9.26;93.07
41636;BME280;27623;51.966;4.602;2024-03-07T00:58:31;64129.19;;;9.12;93.37
41636;BME280;27623;51.966;4.602;2024-03-07T01:00:57;64122.25;;;9.22;93.59
41636;BME280;27623;51.966;4.602;2024-03-07T01:03:22;64125.34;;;9.22;93.66
41636;BME280;27623;51.966;4.602;2024-03-07T01:05:49;64136.59;;;9.16;93.65
41636;BME280;27623;51.966;4.602;2024-03-07T01:08:17;64106.81;;;9.19;93.85
41636;BME280;27623;51.966;4.602;2024-03-07T01:10:42;64138.03;;;9.22;93.38
41636;BME280;27623;51.966;4.602;2024-03-07T01:13:08;64096.69;;;9.12;93.93
41636;BME280;27623;51.966;4.602;2024-03-07T01:15:40;64083.97;;;9.05;94.42
41636;BME280;27623;51.966;4.602;2024-03-07T01:18:06;64087.63;;;8.99;95.42
41636;BME280;27623;51.966;4.602;2024-03-07T01:20:32;64097.41;;;9.08;94.66
41636;BME280;27623;51.966;4.602;2024-03-07T01:22:57;64057.31;;;8.94;95.77
41636;BME280;27623;51.966;4.602;2024-03-07T01:25:23;64096.31;;;9.00;95.38
41636;BME280;27623;51.966;4.602;2024-03-07T01:27:48;64091.25;;;9.00;95.22
41636;BME280;27623;51.966;4.602;2024-03-07T01:30:14;64096.50;;;9.03;94.49
41636;BME280;27623;51.966;4.602;2024-03-07T01:32:41;64105.59;;;9.02;94.56
41636;BME280;27623;51.966;4.602;2024-03-07T01:35:06;64079.44;;;9.06;94.63
41636;BME280;27623;51.966;4.602;2024-03-07T01:37:33;64099.59;;;8.96;94.48
41636;BME280;27623;51.966;4.602;2024-03-07T01:39:59;64096.50;;;9.03;93.92
41636;BME280;27623;51.966;4.602;2024-03-07T01:42:24;64087.66;;;8.85;95.30
41636;BME280;27623;51.966;4.602;2024-03-07T01:44:50;64063.53;;;8.81;94.62
41636;BME280;27623;51.966;4.602;2024-03-07T01:47:17;64115.41;;;8.82;95.95
41636;BME280;27623;51.966;4.602;2024-03-07T01:49:44;64100.00;;;8.87;95.01
41636;BME280;27623;51.966;4.602;2024-03-07T01:52:10;64096.72;;;8.84;95.26
41636;BME280;27623;51.966;4.602;2024-03-07T01:54:36;64093.09;;;8.90;95.24
41636;BME280;27623;51.966;4.602;2024-03-07T01:57:02;64103.25;;;8.83;94.88
41636;BME280;27623;51.966;4.602;2024-03-07T01:59:29;64099.81;;;8.91;94.73
41636;BME280;27623;51.966;4.602;2024-03-07T02:01:56;64078.03;;;8.78;95.00
41636;BME280;27623;51.966;4.602;2024-03-07T02:04:22;64096.75;;;8.70;95.68
41636;BME280;27623;51.966;4.602;2024-03-07T02:06:49;64050.47;;;8.69;95.79
41636;BME280;27623;51.966;4.602;2024-03-07T02:09:15;64065.38;;;8.57;96.61
41636;BME280;27623;51.966;4.602;2024-03-07T02:11:40;64035.47;;;8.29;97.45
41636;BME280;27623;51.966;4.602;2024-03-07T02:14:08;64004.09;;;8.31;98.12
41636;BME280;27623;51.966;4.602;2024-03-07T02:16:33;63981.63;;;8.14;98.43
41636;BME280;27623;51.966;4.602;2024-03-07T02:18:59;63995.78;;;8.20;98.21
41636;BME280;27623;51.966;4.602;2024-03-07T02:21:25;64027.69;;;8.26;98.04
41636;BME280;27623;51.966;4.602;2024-03-07T02:23:50;64041.09;;;8.30;97.16
41636;BME280;27623;51.966;4.602;2024-03-07T02:26:16;64020.97;;;8.18;95.44
41636;BME280;27623;51.966;4.602;2024-03-07T02:28:42;63994.69;;;8.19;96.95
41636;BME280;27623;51.966;4.602;2024-03-07T02:31:07;64033.84;;;8.35;94.72
41636;BME280;27623;51.966;4.602;2024-03-07T02:33:32;64035.13;;;8.10;96.03
41636;BME280;27623;51.966;4.602;2024-03-07T02:35:58;64011.72;;;8.16;95.92
41636;BME280;27623;51.966;4.602;2024-03-07T02:38:23;63971.50;;;8.00;96.79
41636;BME280;27623;51.966;4.602;2024-03-07T02:40:49;63991.25;;;7.92;97.44
41636;BME280;27623;51.966;4.602;2024-03-07T02:43:14;63960.28;;;7.99;97.02
41636;BME280;27623;51.966;4.602;2024-03-07T02:45:41;64011.19;;;8.16;95.20
41636;BME280;27623;51.966;4.602;2024-03-07T02:48:06;64015.72;;;8.08;95.29
41636;BME280;27623;51.966;4.602;2024-03-07T02:50:37;64009.38;;;8.05;95.62
41636;BME280;27623;51.966;4.602;2024-03-07T02:53:05;63993.44;;;8.02;95.12
41636;BME280;27623;51.966;4.602;2024-03-07T02:55:31;63957.19;;;7.91;95.25
41636;BME280;27623;51.966;4.602;2024-03-07T02:57:59;64003.25;;;7.89;95.37
41636;BME280;27623;51.966;4.602;2024-03-07T03:00:25;63919.91;;;7.80;94.88
41636;BME280;27623;51.966;4.602;2024-03-07T03:02:55;63956.28;;;7.93;94.45
41636;BME280;27623;51.966;4.602;2024-03-07T03:05:21;64002.31;;;8.05;93.56
41636;BME280;27623;51.966;4.602;2024-03-07T03:07:47;63976.94;;;7.91;94.47
41636;BME280;27623;51.966;4.602;2024-03-07T03:10:24;63962.13;;;7.89;94.31
41636;BME280;27623;51.966;4.602;2024-03-07T03:12:55;63976.41;;;7.98;93.78
41636;BME280;27623;51.966;4.602;2024-03-07T03:15:23;63975.50;;;7.99;93.97
41636;BME280;27623;51.966;4.602;2024-03-07T03:17:48;63972.59;;;7.94;94.32
41636;BME280;27623;51.966;4.602;2024-03-07T03:20:14;63984.56;;;7.91;95.34
41636;BME280;27623;51.966;4.602;2024-03-07T03:22:56;63993.81;;;7.85;95.80
41636;BME280;27623;51.966;4.602;2024-03-07T03:25:21;63974.06;;;7.79;96.35
41636;BME280;27623;51.966;4.602;2024-03-07T03:27:48;63935.66;;;7.81;96.62
41636;BME280;27623;51.966;4.602;2024-03-07T03:30:14;63953.06;;;7.76;96.82
41636;BME280;27623;51.966;4.602;2024-03-07T03:32:40;63951.25;;;7.86;97.73
41636;BME280;27623;51.966;4.602;2024-03-07T03:35:07;63990.34;;;7.94;98.07
41636;BME280;27623;51.966;4.602;2024-03-07T03:37:39;64001.78;;;7.83;97.79
41636;BME280;27623;51.966;4.602;2024-03-07T03:40:06;63948.53;;;7.76;98.95
41636;BME280;27623;51.966;4.602;2024-03-07T03:42:40;63936.75;;;7.89;99.33
41636;BME280;27623;51.966;4.602;2024-03-07T03:45:07;63946.53;;;7.84;99.30
41636;BME280;27623;51.966;4.602;2024-03-07T03:47:37;63952.16;;;7.77;99.53
41636;BME280;27623;51.966;4.602;2024-03-07T03:50:05;63959.22;;;7.77;99.89
41636;BME280;27623;51.966;4.602;2024-03-07T03:52:31;63968.09;;;7.73;99.54
41636;BME280;27623;51.966;4.602;2024-03-07T03:54:58;63955.59;;;7.83;99.78
41636;BME280;27623;51.966;4.602;2024-03-07T03:57:28;63957.94;;;7.80;99.67
41636;BME280;27623;51.966;4.602;2024-03-07T03:59:53;63946.19;;;7.79;99.67
41636;BME280;27623;51.966;4.602;2024-03-07T04:02:20;63964.66;;;7.68;100.00
41636;BME280;27623;51.966;4.602;2024-03-07T04:04:46;63948.34;;;7.81;100.00
41636;BME280;27623;51.966;4.602;2024-03-07T04:07:12;63974.97;;;7.77;100.00
41636;BME280;27623;51.966;4.602;2024-03-07T04:09:38;63918.47;;;7.74;100.00
41636;BME280;27623;51.966;4.602;2024-03-07T04:12:03;63939.47;;;7.77;100.00
41636;BME280;27623;51.966;4.602;2024-03-07T04:14:30;63948.53;;;7.76;100.00
41636;BME280;27623;51.966;4.602;2024-03-07T04:16:58;63942.38;;;7.61;100.00
41636;BME280;27623;51.966;4.602;2024-03-07T04:19:23;63976.06;;;7.64;100.00
41636;BME280;27623;51.966;4.602;2024-03-07T04:21:50;63982.75;;;7.80;100.00
41636;BME280;27623;51.966;4.602;2024-03-07T04:24:16;63979.16;;;7.79;100.00
41636;BME280;27623;51.966;4.602;2024-03-07T04:26:42;64009.94;;;7.91;100.00
41636;BME280;27623;51.966;4.602;2024-03-07T04:29:07;63947.63;;;7.78;100.00
41636;BME280;27623;51.966;4.602;2024-03-07T04:31:36;63968.81;;;7.83;100.00
41636;BME280;27623;51.966;4.602;2024-03-07T04:34:02;63980.38;;;7.97;100.00
41636;BME280;27623;51.966;4.602;2024-03-07T04:36:27;63981.84;;;8.10;100.00
41636;BME280;27623;51.966;4.602;2024-03-07T04:38:54;63949.22;;;7.93;100.00
41636;BME280;27623;51.966;4.602;2024-03-07T04:41:20;63989.09;;;8.05;100.00
41636;BME280;27623;51.966;4.602;2024-03-07T04:43:45;63990.72;;;8.06;100.00
41636;BME280;27623;51.966;4.602;2024-03-07T04:46:10;63992.91;;;8.01;100.00
41636;BME280;27623;51.966;4.602;2024-03-07T04:48:36;63986.19;;;8.00;100.00
41636;BME280;27623;51.966;4.602;2024-03-07T04:51:02;63982.19;;;8.01;100.00
41636;BME280;27623;51.966;4.602;2024-03-07T04:53:28;64004.66;;;7.96;100.00
41636;BME280;27623;51.966;4.602;2024-03-07T04:55:54;63999.97;;;8.01;100.00
41636;BME280;27623;51.966;4.602;2024-03-07T04:58:19;64005.59;;;7.94;100.00
41636;BME280;27623;51.966;4.602;2024-03-07T05:00:45;63966.63;;;7.96;100.00
41636;BME280;27623;51.966;4.602;2024-03-07T05:03:10;63965.19;;;7.82;100.00
41636;BME280;27623;51.966;4.602;2024-03-07T05:05:36;63979.88;;;7.89;100.00
41636;BME280;27623;51.966;4.602;2024-03-07T05:08:01;63975.69;;;7.87;100.00
41636;BME280;27623;51.966;4.602;2024-03-07T05:10:27;63985.31;;;7.80;100.00
41636;BME280;27623;51.966;4.602;2024-03-07T05:12:55;63967.19;;;7.89;100.00
41636;BME280;27623;51.966;4.602;2024-03-07T05:15:20;63973.16;;;7.87;100.00
41636;BME280;27623;51.966;4.602;2024-03-07T05:17:46;63984.03;;;7.83;100.00
41636;BME280;27623;51.966;4.602;2024-03-07T05:20:11;63967.38;;;7.70;100.00
41636;BME280;27623;51.966;4.602;2024-03-07T05:22:40;63952.00;;;7.68;100.00
41636;BME280;27623;51.966;4.602;2024-03-07T05:25:09;63964.09;;;7.74;100.00
41636;BME280;27623;51.966;4.602;2024-03-07T05:27:35;63970.63;;;7.80;100.00
41636;BME280;27623;51.966;4.602;2024-03-07T05:30:02;63964.66;;;7.53;100.00
41636;BME280;27623;51.966;4.602;2024-03-07T05:32:30;63934.97;;;7.64;100.00
41636;BME280;27623;51.966;4.602;2024-03-07T05:34:56;63934.25;;;7.61;100.00
41636;BME280;27623;51.966;4.602;2024-03-07T05:37:22;63989.47;;;7.74;100.00
41636;BME280;27623;51.966;4.602;2024-03-07T05:39:49;63962.84;;;7.64;100.00
41636;BME280;27623;51.966;4.602;2024-03-07T05:42:14;63947.28;;;7.66;100.00
41636;BME280;27623;51.966;4.602;2024-03-07T05:44:41;63936.03;;;7.72;100.00
41636;BME280;27623;51.966;4.602;2024-03-07T05:47:07;63959.56;;;7.75;100.00
41636;BME280;27623;51.966;4.602;2024-03-07T05:49:33;63946.53;;;7.70;100.00
41636;BME280;27623;51.966;4.602;2024-03-07T05:51:58;63938.03;;;7.50;100.00
41636;BME280;27623;51.966;4.602;2024-03-07T05:54:26;63948.38;;;7.52;100.00
41636;BME280;27623;51.966;4.602;2024-03-07T05:56:53;63949.09;;;7.41;100.00
41636;BME280;27623;51.966;4.602;2024-03-07T05:59:20;63969.56;;;7.51;100.00
41636;BME280;27623;51.966;4.602;2024-03-07T06:01:46;63953.06;;;7.62;100.00
41636;BME280;27623;51.966;4.602;2024-03-07T06:04:12;63947.63;;;7.56;100.00
41636;BME280;27623;51.966;4.602;2024-03-07T06:06:38;63927.75;;;7.47;100.00
41636;BME280;27623;51.966;4.602;2024-03-07T06:09:05;63922.13;;;7.47;100.00
41636;BME280;27623;51.966;4.602;2024-03-07T06:14:01;63917.06;;;7.47;100.00
41636;BME280;27623;51.966;4.602;2024-03-07T06:16:31;63941.66;;;7.51;100.00
41636;BME280;27623;51.966;4.602;2024-03-07T06:19:05;63918.69;;;7.41;100.00
41636;BME280;27623;51.966;4.602;2024-03-07T06:21:35;63924.47;;;7.44;100.00
41636;BME280;27623;51.966;4.602;2024-03-07T06:24:02;63909.63;;;7.28;100.00
41636;BME280;27623;51.966;4.602;2024-03-07T06:26:29;63927.91;;;7.29;100.00
41636;BME280;27623;51.966;4.602;2024-03-07T06:29:09;63916.88;;;7.44;100.00
41636;BME280;27623;51.966;4.602;2024-03-07T06:31:36;63913.97;;;7.39;100.00
41636;BME280;27623;51.966;4.602;2024-03-07T06:34:02;63911.25;;;7.30;100.00
41636;BME280;27623;51.966;4.602;2024-03-07T06:36:28;63915.25;;;7.36;100.00
41636;BME280;27623;51.966;4.602;2024-03-07T06:38:53;63916.50;;;7.32;100.00
41636;BME280;27623;51.966;4.602;2024-03-07T06:41:19;63920.84;;;7.36;100.00
41636;BME280;27623;51.966;4.602;2024-03-07T06:43:45;63910.19;;;7.36;100.00
41636;BME280;27623;51.966;4.602;2024-03-07T06:46:10;63931.19;;;7.39;100.00
41636;BME280;27623;51.966;4.602;2024-03-07T06:48:40;63921.59;;;7.39;100.00
41636;BME280;27623;51.966;4.602;2024-03-07T06:51:06;63922.84;;;7.36;100.00
41636;BME280;27623;51.966;4.602;2024-03-07T06:53:31;63902.03;;;7.35;100.00
41636;BME280;27623;51.966;4.602;2024-03-07T06:55:57;63917.06;;;7.33;100.00
41636;BME280;27623;51.966;4.602;2024-03-07T06:58:22;63909.09;;;7.35;100.00
41636;BME280;27623;51.966;4.602;2024-03-07T07:00:49;63915.06;;;7.40;100.00
41636;BME280;27623;51.966;4.602;2024-03-07T07:03:17;63904.03;;;7.20;100.00
41636;BME280;27623;51.966;4.602;2024-03-07T07:05:44;63872.72;;;7.22;100.00
41636;BME280;27623;51.966;4.602;2024-03-07T07:08:10;63883.75;;;7.35;100.00
41636;BME280;27623;51.966;4.602;2024-03-07T07:10:37;63942.22;;;7.44;100.00
41636;BME280;27623;51.966;4.602;2024-03-07T07:13:05;63930.81;;;7.41;100.00
41636;BME280;27623;51.966;4.602;2024-03-07T07:15:31;63925.94;;;7.43;100.00
41636;BME280;27623;51.966;4.602;2024-03-07T07:17:58;63916.16;;;7.41;100.00
41636;BME280;27623;51.966;4.602;2024-03-07T07:20:24;63956.50;;;7.53;100.00
41636;BME280;27623;51.966;4.602;2024-03-07T07:22:50;63941.31;;;7.53;100.00
41636;BME280;27623;51.966;4.602;2024-03-07T07:25:16;63929.00;;;7.51;100.00
41636;BME280;27623;51.966;4.602;2024-03-07T07:27:44;63930.44;;;7.50;100.00
41636;BME280;27623;51.966;4.602;2024-03-07T07:30:11;63948.38;;;7.52;100.00
41636;BME280;27623;51.966;4.602;2024-03-07T07:32:40;63935.72;;;7.38;100.00
41636;BME280;27623;51.966;4.602;2024-03-07T07:35:06;63942.56;;;7.49;100.00
41636;BME280;27623;51.966;4.602;2024-03-07T07:37:42;63922.31;;;7.42;100.00
41636;BME280;27623;51.966;4.602;2024-03-07T07:40:09;63942.41;;;7.47;100.00
41636;BME280;27623;51.966;4.602;2024-03-07T07:42:39;63939.66;;;7.51;100.00
41636;BME280;27623;51.966;4.602;2024-03-07T07:45:09;63925.91;;;7.57;100.00
41636;BME280;27623;51.966;4.602;2024-03-07T07:47:42;63948.00;;;7.54;100.00
41636;BME280;27623;51.966;4.602;2024-03-07T07:50:14;63892.97;;;7.50;100.00
41636;BME280;27623;51.966;4.602;2024-03-07T07:52:44;63957.06;;;7.61;100.00
41636;BME280;27623;51.966;4.602;2024-03-07T07:55:10;63911.59;;;7.49;100.00
41636;BME280;27623;51.966;4.602;2024-03-07T07:57:47;63884.84;;;7.43;100.00
41636;BME280;27623;51.966;4.602;2024-03-07T08:00:17;63945.84;;;7.52;100.00
41636;BME280;27623;51.966;4.602;2024-03-07T08:05:36;63916.84;;;7.58;100.00
41636;BME280;27623;51.966;4.602;2024-03-07T08:08:04;63928.63;;;7.60;100.00
41636;BME280;27623;51.966;4.602;2024-03-07T08:10:32;63996.91;;;7.79;100.00
41636;BME280;27623;51.966;4.602;2024-03-07T08:12:59;63982.03;;;7.77;100.00
41636;BME280;27623;51.966;4.602;2024-03-07T08:15:29;63943.47;;;7.55;100.00
41636;BME280;27623;51.966;4.602;2024-03-07T08:17:59;63986.56;;;7.69;100.00
41636;BME280;27623;51.966;4.602;2024-03-07T08:20:26;63969.91;;;7.84;100.00
41636;BME280;27623;51.966;4.602;2024-03-07T08:22:56;63979.13;;;7.93;100.00
41636;BME280;27623;51.966;4.602;2024-03-07T08:25:23;63950.88;;;7.81;100.00
41636;BME280;27623;51.966;4.602;2024-03-07T08:27:49;64025.88;;;7.94;100.00
41636;BME280;27623;51.966;4.602;2024-03-07T08:30:16;63997.44;;;7.86;100.00
41636;BME280;27623;51.966;4.602;2024-03-07T08:32:43;64018.25;;;8.01;100.00
41636;BME280;27623;51.966;4.602;2024-03-07T08:35:09;64024.59;;;8.05;100.00
41636;BME280;27623;51.966;4.602;2024-03-07T08:37:37;63971.50;;;8.00;100.00
41636;BME280;27623;51.966;4.602;2024-03-07T08:40:04;63978.94;;;7.90;100.00
41636;BME280;27623;51.966;4.602;2024-03-07T08:42:33;63967.19;;;7.89;100.00
41636;BME280;27623;51.966;4.602;2024-03-07T08:45:02;64010.44;;;8.13;100.00
41636;BME280;27623;51.966;4.602;2024-03-07T08:47:30;63994.16;;;7.98;100.00
41636;BME280;27623;51.966;4.602;2024-03-07T08:49:56;64009.38;;;8.12;100.00
41636;BME280;27623;51.966;4.602;2024-03-07T08:52:21;64002.28;;;8.26;100.00
41636;BME280;27623;51.966;4.602;2024-03-07T08:54:47;64068.84;;;8.34;100.00
41636;BME280;27623;51.966;4.602;2024-03-07T08:57:13;64038.19;;;8.39;100.00
41636;BME280;27623;51.966;4.602;2024-03-07T08:59:44;64029.84;;;8.43;100.00
41636;BME280;27623;51.966;4.602;2024-03-07T09:02:10;64040.91;;;8.48;100.00
41636;BME280;27623;51.966;4.602;2024-03-07T09:04:37;64052.69;;;8.50;100.00
41636;BME280;27623;51.966;4.602;2024-03-07T09:07:04;64077.34;;;8.68;100.00
41636;BME280;27623;51.966;4.602;2024-03-07T09:09:30;64068.44;;;8.72;97.79
41636;BME280;27623;51.966;4.602;2024-03-07T09:11:56;64094.72;;;8.84;97.91
41636;BME280;27623;51.966;4.602;2024-03-07T09:14:21;64082.38;;;8.82;94.89
41636;BME280;27623;51.966;4.602;2024-03-07T09:16:47;64104.34;;;8.91;96.15
41636;BME280;27623;51.966;4.602;2024-03-07T09:19:14;64117.03;;;9.05;95.91
41636;BME280;27623;51.966;4.602;2024-03-07T09:21:40;64128.28;;;9.06;94.46
41636;BME280;27623;51.966;4.602;2024-03-07T09:24:06;64099.78;;;9.06;93.24
41636;BME280;27623;51.966;4.602;2024-03-07T09:26:32;64114.47;;;9.12;91.29
41636;BME280;27623;51.966;4.602;2024-03-07T09:28:59;64136.94;;;9.28;91.48
41636;BME280;27623;51.966;4.602;2024-03-07T09:31:26;64136.75;;;9.40;90.68
41636;BME280;27623;51.966;4.602;2024-03-07T09:33:54;64136.22;;;9.25;89.32
41636;BME280;27623;51.966;4.602;2024-03-07T09:36:20;64134.03;;;9.38;89.85
41636;BME280;27623;51.966;4.602;2024-03-07T09:38:45;64173.28;;;9.32;87.84
41636;BME280;27623;51.966;4.602;2024-03-07T09:41:10;64153.03;;;9.62;89.08
41636;BME280;27623;51.966;4.602;2024-03-07T09:43:37;64194.47;;;9.73;89.29
41636;BME280;27623;51.966;4.602;2024-03-07T09:46:05;64225.31;;;9.92;88.24
41636;BME280;27623;51.966;4.602;2024-03-07T09:48:31;64228.56;;;10.09;85.82
41636;BME280;27623;51.966;4.602;2024-03-07T09:51:02;64233.25;;;10.18;86.20
41636;BME280;27623;51.966;4.602;2024-03-07T09:53:27;64278.91;;;10.30;86.30
41636;BME280;27623;51.966;4.602;2024-03-07T09:55:54;64268.34;;;10.32;83.09
41636;BME280;27623;51.966;4.602;2024-03-07T09:58:20;64219.63;;;10.20;83.02
41636;BME280;27623;51.966;4.602;2024-03-07T10:00:46;64247.44;;;10.24;81.65
41636;BME280;27623;51.966;4.602;2024-03-07T10:03:17;64293.41;;;10.41;78.65
41636;BME280;27623;51.966;4.602;2024-03-07T10:05:45;64243.06;;;10.27;75.76
41636;BME280;27623;51.966;4.602;2024-03-07T10:08:11;64233.63;;;10.23;75.09
41636;BME280;27623;51.966;4.602;2024-03-07T10:10:38;64244.16;;;10.28;74.42
41636;BME280;27623;51.966;4.602;2024-03-07T10:13:03;64256.53;;;10.30;73.23
41636;BME280;27623;51.966;4.602;2024-03-07T10:15:31;64270.81;;;10.60;72.35
41636;BME280;27623;51.966;4.602;2024-03-07T10:17:58;64278.63;;;10.70;72.71
41636;BME280;27623;51.966;4.602;2024-03-07T10:20:25;64279.34;;;10.73;72.80
41636;BME280;27623;51.966;4.602;2024-03-07T10:22:52;64320.56;;;11.02;73.94
41636;BME280;27623;51.966;4.602;2024-03-07T10:25:18;64362.97;;;11.11;70.42
41636;BME280;27623;51.966;4.602;2024-03-07T10:27:46;64345.06;;;11.25;69.34
41636;BME280;27623;51.966;4.602;2024-03-07T10:30:14;64350.91;;;11.28;69.10
41636;BME280;27623;51.966;4.602;2024-03-07T10:32:55;64373.63;;;11.47;69.41
41636;BME280;27623;51.966;4.602;2024-03-07T10:35:21;64401.28;;;11.56;66.90
41636;BME280;27623;51.966;4.602;2024-03-07T10:37:54;64417.28;;;11.80;67.81
41636;BME280;27623;51.966;4.602;2024-03-07T10:40:20;64424.09;;;12.05;67.12
41636;BME280;27623;51.966;4.602;2024-03-07T10:42:48;64436.72;;;12.03;65.16
41636;BME280;27623;51.966;4.602;2024-03-07T10:45:18;64426.31;;;12.00;65.51
41636;BME280;27623;51.966;4.602;2024-03-07T10:47:45;64441.66;;;12.00;66.62
41636;BME280;27623;51.966;4.602;2024-03-07T10:50:38;64459.47;;;12.15;63.51
41636;BME280;27623;51.966;4.602;2024-03-07T10:53:31;64446.66;;;12.22;64.76
41636;BME280;27623;51.966;4.602;2024-03-07T10:58:57;64445.94;;;12.19;65.12
41636;BME280;27623;51.966;4.602;2024-03-07T11:01:26;64477.81;;;12.36;64.45
41636;BME280;27623;51.966;4.602;2024-03-07T11:03:54;64528.59;;;12.69;63.77
41636;BME280;27623;51.966;4.602;2024-03-07T11:06:23;64539.22;;;12.67;63.61
41636;BME280;27623;51.966;4.602;2024-03-07T11:08:49;64539.66;;;12.89;62.09
41636;BME280;27623;51.966;4.602;2024-03-07T11:11:16;64604.63;;;13.19;62.60
41636;BME280;27623;51.966;4.602;2024-03-07T11:13:45;64583.50;;;13.39;61.06
41636;BME280;27623;51.966;4.602;2024-03-07T11:16:12;64613.97;;;13.51;58.78
41636;BME280;27623;51.966;4.602;2024-03-07T11:18:40;64567.22;;;12.96;59.49
41636;BME280;27623;51.966;4.602;2024-03-07T11:21:05;64532.00;;;12.89;57.95
41636;BME280;27623;51.966;4.602;2024-03-07T11:23:33;64530.56;;;12.83;58.48
41636;BME280;27623;51.966;4.602;2024-03-07T11:28:39;64600.47;;;13.48;57.60
41636;BME280;27623;51.966;4.602;2024-03-07T11:31:25;64665.50;;;13.63;55.58
41636;BME280;27623;51.966;4.602;2024-03-07T11:34:12;64654.00;;;13.98;57.50
41636;BME280;27623;51.966;4.602;2024-03-07T11:36:42;64671.63;;;13.86;57.24
41636;BME280;27623;51.966;4.602;2024-03-07T11:39:42;64648.66;;;14.02;56.14
41636;BME280;27623;51.966;4.602;2024-03-07T11:42:09;64732.88;;;14.42;55.56
41636;BME280;27623;51.966;4.602;2024-03-07T11:44:34;64692.66;;;14.24;54.40
41636;BME280;27623;51.966;4.602;2024-03-07T11:47:01;64670.34;;;13.89;52.19
41636;BME280;27623;51.966;4.602;2024-03-07T11:49:34;64737.72;;;14.23;53.31
41636;BME280;27623;51.966;4.602;2024-03-07T11:52:01;64709.59;;;14.40;52.61
41636;BME280;27623;51.966;4.602;2024-03-07T11:54:30;64688.09;;;13.87;51.00
41636;BME280;27623;51.966;4.602;2024-03-07T11:56:57;64756.97;;;14.58;51.01
41636;BME280;27623;51.966;4.602;2024-03-07T11:59:27;64760.06;;;14.65;50.39
41636;BME280;27623;51.966;4.602;2024-03-07T12:01:57;64676.38;;;14.26;48.89
41636;BME280;27623;51.966;4.602;2024-03-07T12:04:26;64702.34;;;14.31;49.99
41636;BME280;27623;51.966;4.602;2024-03-07T12:06:52;64742.13;;;14.58;50.29
41636;BME280;27623;51.966;4.602;2024-03-07T12:09:17;64787.16;;;15.02;49.24
41636;BME280;27623;51.966;4.602;2024-03-07T12:11:50;64693.00;;;14.29;48.71
41636;BME280;27623;51.966;4.602;2024-03-07T12:14:19;64804.47;;;14.85;48.90
41636;BME280;27623;51.966;4.602;2024-03-07T12:16:45;64734.91;;;14.73;48.37
41636;BME280;27623;51.966;4.602;2024-03-07T12:19:11;64739.78;;;14.54;47.43
41636;BME280;27623;51.966;4.602;2024-03-07T12:21:36;64868.94;;;15.35;47.37
41636;BME280;27623;51.966;4.602;2024-03-07T12:24:11;64887.75;;;15.48;47.07
41636;BME280;27623;51.966;4.602;2024-03-07T12:26:37;64816.44;;;15.41;45.95
41636;BME280;27623;51.966;4.602;2024-03-07T12:29:10;64872.53;;;15.81;47.62
41636;BME280;27623;51.966;4.602;2024-03-07T12:31:40;64929.31;;;16.01;45.85
41636;BME280;27623;51.966;4.602;2024-03-07T12:34:06;64974.69;;;16.33;45.66
41636;BME280;27623;51.966;4.602;2024-03-07T12:36:37;64894.44;;;16.02;46.07
41636;BME280;27623;51.966;4.602;2024-03-07T12:39:26;64959.84;;;16.27;46.88
41636;BME280;27623;51.966;4.602;2024-03-07T12:41:56;64925.28;;;16.33;46.35
41636;BME280;27623;51.966;4.602;2024-03-07T12:44:21;64949.19;;;16.29;45.70
41636;BME280;27623;51.966;4.602;2024-03-07T12:46:54;65009.09;;;16.87;45.48
41636;BME280;27623;51.966;4.602;2024-03-07T12:49:23;65047.69;;;16.87;45.83
41636;BME280;27623;51.966;4.602;2024-03-07T12:51:55;65000.00;;;16.73;45.79
41636;BME280;27623;51.966;4.602;2024-03-07T12:54:20;64942.31;;;16.41;45.69
41636;BME280;27623;51.966;4.602;2024-03-07T12:56:47;64810.06;;;15.00;46.80
41636;BME280;27623;51.966;4.602;2024-03-07T12:59:15;64719.94;;;14.26;48.98
41636;BME280;27623;51.966;4.602;2024-03-07T13:01:40;64696.72;;;14.16;50.14
41636;BME280;27623;51.966;4.602;2024-03-07T13:04:12;64713.03;;;14.15;49.48
41636;BME280;27623;51.966;4.602;2024-03-07T13:06:38;64639.56;;;13.58;51.27
41636;BME280;27623;51.966;4.602;2024-03-07T13:09:11;64596.00;;;13.65;52.00
41636;BME280;27623;51.966;4.602;2024-03-07T13:11:39;64621.84;;;13.54;51.26
41636;BME280;27623;51.966;4.602;2024-03-07T13:14:12;64641.00;;;13.64;51.64
41636;BME280;27623;51.966;4.602;2024-03-07T13:16:37;64604.63;;;13.57;51.29
41636;BME280;27623;51.966;4.602;2024-03-07T13:19:03;64609.25;;;13.49;52.73